Terminal Aerodrome Forecast
Issued by NWS

Home | Current Version | Previous Version | Text Only | Print | Product List | Glossary On
Versions: 1 2 3 4 5 6 7 8 9 10 11 12 13
000
FTUS41 KLWX 072336
TAFMTN
TAF
KMTN 072336Z 0800/0824 VRB05KT P6SM SKC
     FM081000 33004KT P6SM BKN040
     FM081400 28006KT P6SM BKN060
     FM081800 27013G24KT P6SM BKN200
      AMD NOT SKED 0802/0812=

USA.gov is the U.S. government's official web portal to all federal, state and local government web resources and services.